Terminal Aerodrome Forecast
Issued by NWS Sterling, VA

Home | Current Version | Previous Version | Text Only | Print | Product List | Glossary On
Versions: 1 2 3 4 5 6 7 8 9 10 11 12 13 14 15 16 17 18 19 20 21 22 23
000
FTUS41 KLWX 252037 AAA
TAFDCA
TAF AMD
KDCA 252037Z 2521/2618 18014G20KT P6SM FEW050
     FM260000 18008KT P6SM FEW200
     FM261500 20008G20KT P6SM SCT050 SCT100=

USA.gov is the U.S. government's official web portal to all federal, state and local government web resources and services.